createdAt,value
2018-07-04T00:01:19.560Z,15.10
2018-07-04T00:04:06.847Z,15.00
2018-07-04T00:06:55.700Z,15.00
2018-07-04T00:09:45.113Z,15.00
2018-07-04T00:12:32.692Z,14.90
2018-07-04T00:15:19.884Z,15.00
2018-07-04T00:18:07.365Z,14.90
2018-07-04T00:20:55.514Z,14.80
2018-07-04T00:23:44.759Z,14.70
2018-07-04T00:26:34.047Z,14.70
2018-07-04T00:29:21.772Z,14.70
2018-07-04T00:32:09.602Z,14.70
2018-07-04T00:34:59.071Z,14.60
2018-07-04T00:37:47.329Z,14.60
2018-07-04T00:40:36.044Z,14.60
2018-07-04T00:43:25.942Z,14.60
2018-07-04T00:46:13.974Z,14.50
2018-07-04T00:49:01.182Z,14.50
2018-07-04T00:51:48.288Z,14.50
2018-07-04T00:54:36.295Z,14.40
2018-07-04T00:57:23.675Z,14.40
2018-07-04T01:00:11.325Z,14.40
2018-07-04T01:03:02.973Z,14.40
2018-07-04T01:05:52.105Z,14.30
2018-07-04T01:08:39.978Z,14.30
2018-07-04T01:11:27.770Z,14.20
2018-07-04T01:14:15.209Z,14.20
2018-07-04T01:17:04.257Z,14.20
2018-07-04T01:19:53.457Z,14.20
2018-07-04T01:22:41.827Z,14.20
2018-07-04T01:25:29.085Z,14.10
2018-07-04T01:28:18.769Z,14.10
2018-07-04T01:31:08.296Z,14.10
2018-07-04T01:33:57.833Z,14.10
2018-07-04T01:36:46.568Z,14.00
2018-07-04T01:39:33.962Z,14.00
2018-07-04T01:42:21.377Z,14.00
2018-07-04T01:45:09.253Z,13.90
2018-07-04T01:47:58.231Z,13.90
2018-07-04T01:50:47.426Z,14.00
2018-07-04T01:53:35.306Z,13.90
2018-07-04T01:56:24.590Z,13.90
2018-07-04T01:59:18.181Z,13.80
2018-07-04T02:02:06.784Z,13.80
2018-07-04T02:04:59.846Z,13.70
2018-07-04T02:07:48.687Z,13.70
2018-07-04T02:10:36.262Z,13.70
2018-07-04T02:13:24.322Z,13.60
2018-07-04T02:16:12.591Z,13.60
2018-07-04T02:19:01.261Z,13.60
2018-07-04T02:21:48.568Z,13.50
2018-07-04T02:24:37.033Z,13.50
2018-07-04T02:27:26.388Z,13.50
2018-07-04T02:30:14.349Z,13.50
2018-07-04T02:35:45.120Z,13.40
2018-07-04T02:38:32.979Z,13.40
2018-07-04T02:41:22.284Z,13.40
2018-07-04T02:44:09.525Z,13.40
2018-07-04T02:47:01.295Z,13.40
2018-07-04T02:49:48.889Z,13.30
2018-07-04T02:52:37.549Z,13.30
2018-07-04T02:55:25.449Z,13.30
2018-07-04T02:58:17.815Z,13.30
2018-07-04T03:01:05.762Z,13.30
2018-07-04T03:03:53.247Z,13.30
2018-07-04T03:06:42.120Z,13.30
2018-07-04T03:09:30.073Z,13.30
2018-07-04T03:12:18.251Z,13.20
2018-07-04T03:15:07.879Z,13.20
2018-07-04T03:17:56.374Z,13.20
2018-07-04T03:20:44.110Z,13.20
2018-07-04T03:23:33.841Z,13.20
2018-07-04T03:26:22.948Z,13.20
2018-07-04T03:31:57.962Z,13.20
2018-07-04T03:34:49.948Z,13.20
2018-07-04T03:37:37.804Z,13.20
2018-07-04T03:40:25.389Z,13.20
2018-07-04T03:43:14.053Z,13.20
2018-07-04T03:46:03.531Z,13.30
2018-07-04T03:48:53.479Z,13.30
2018-07-04T03:54:26.925Z,13.30
2018-07-04T03:57:14.263Z,13.30
2018-07-04T04:00:02.078Z,13.40
2018-07-04T04:02:49.690Z,13.40
2018-07-04T04:05:38.807Z,13.40
2018-07-04T04:08:26.317Z,13.50
2018-07-04T04:11:14.641Z,13.50
2018-07-04T04:14:01.820Z,13.60
2018-07-04T04:16:52.027Z,13.60
2018-07-04T04:19:47.179Z,13.70
2018-07-04T04:22:35.321Z,13.80
2018-07-04T04:25:23.078Z,13.90
2018-07-04T04:28:10.781Z,13.90
2018-07-04T04:30:59.280Z,14.00
2018-07-04T04:33:47.415Z,14.10
2018-07-04T04:36:36.599Z,14.20
2018-07-04T04:39:25.406Z,14.30
2018-07-04T04:42:13.439Z,14.40
2018-07-04T04:45:00.854Z,14.50
2018-07-04T04:47:48.128Z,14.60
2018-07-04T04:50:36.139Z,14.70
2018-07-04T04:53:24.295Z,14.70
2018-07-04T04:56:13.644Z,14.70
2018-07-04T04:59:01.165Z,14.80
2018-07-04T05:01:49.525Z,14.90
2018-07-04T05:04:36.856Z,15.00
2018-07-04T05:07:24.193Z,15.10
2018-07-04T05:10:12.789Z,15.30
2018-07-04T05:13:00.739Z,15.50
2018-07-04T05:15:49.727Z,15.70
2018-07-04T05:18:37.565Z,15.90
2018-07-04T05:21:28.087Z,16.10
2018-07-04T05:24:16.633Z,16.30
2018-07-04T05:27:06.630Z,16.40
2018-07-04T05:29:54.728Z,16.60
2018-07-04T05:32:42.803Z,16.80
2018-07-04T05:35:30.185Z,17.00
2018-07-04T05:38:19.107Z,17.20
2018-07-04T05:43:50.115Z,17.50
2018-07-04T05:46:39.735Z,17.80
2018-07-04T05:49:26.885Z,17.90
2018-07-04T05:52:19.227Z,18.00
2018-07-04T05:55:06.606Z,18.10
2018-07-04T05:57:55.538Z,18.00
2018-07-04T06:00:43.178Z,17.90
2018-07-04T06:03:30.394Z,17.90
2018-07-04T06:06:20.231Z,18.10
2018-07-04T06:09:07.659Z,18.40
2018-07-04T06:11:58.567Z,18.70
2018-07-04T06:14:45.941Z,18.90
2018-07-04T06:17:34.165Z,19.20
2018-07-04T06:20:24.571Z,19.40
2018-07-04T06:23:14.105Z,19.60
2018-07-04T06:26:01.383Z,19.80
2018-07-04T06:28:48.585Z,20.00
2018-07-04T06:31:35.929Z,20.30
2018-07-04T06:34:23.136Z,20.60
2018-07-04T06:37:10.437Z,20.70
2018-07-04T06:39:39.542Z,20.70
2018-07-04T06:42:08.312Z,20.70
2018-07-04T06:44:36.895Z,21.00
2018-07-04T06:47:06.536Z,21.10
2018-07-04T06:49:35.484Z,21.20
2018-07-04T06:52:04.364Z,21.50
2018-07-04T06:54:33.024Z,21.40
2018-07-04T06:57:02.541Z,21.00
2018-07-04T06:59:33.559Z,20.40
2018-07-04T07:02:10.963Z,20.60
2018-07-04T07:04:59.326Z,20.90
2018-07-04T07:07:50.826Z,21.40
2018-07-04T07:10:37.960Z,21.80
2018-07-04T07:13:25.605Z,22.20
2018-07-04T07:16:12.954Z,22.40
2018-07-04T07:19:00.101Z,22.70
2018-07-04T07:21:47.437Z,22.90
2018-07-04T07:24:34.806Z,22.50
2018-07-04T07:27:22.028Z,22.00
2018-07-04T07:30:09.205Z,21.90
2018-07-04T07:32:56.760Z,22.00
2018-07-04T07:35:44.050Z,22.10
2018-07-04T07:38:31.325Z,22.50
2018-07-04T07:41:18.585Z,23.10
2018-07-04T07:44:05.717Z,23.80
2018-07-04T07:46:52.917Z,24.00
2018-07-04T07:49:40.140Z,24.20
2018-07-04T07:52:27.253Z,24.30
2018-07-04T07:55:14.838Z,24.40
2018-07-04T07:58:02.025Z,24.50
2018-07-04T08:00:49.081Z,24.90
2018-07-04T08:03:36.184Z,24.20
2018-07-04T08:06:23.389Z,24.30
2018-07-04T08:09:10.577Z,24.60
2018-07-04T08:12:01.146Z,24.80
2018-07-04T08:14:48.342Z,25.50
2018-07-04T08:17:35.465Z,25.50
2018-07-04T08:20:24.184Z,25.40
2018-07-04T08:23:17.850Z,25.30
2018-07-04T08:26:05.450Z,25.40
2018-07-04T08:28:53.588Z,25.50
2018-07-04T08:31:42.837Z,25.00
2018-07-04T08:34:30.734Z,24.60
2018-07-04T08:37:17.927Z,24.70
2018-07-04T08:40:05.885Z,25.00
2018-07-04T08:42:53.513Z,24.90
2018-07-04T08:45:40.747Z,25.20
2018-07-04T08:48:28.866Z,25.90
2018-07-04T08:51:16.207Z,26.60
2018-07-04T08:54:03.517Z,26.50
2018-07-04T08:56:50.793Z,26.50
2018-07-04T08:59:38.083Z,26.80
2018-07-04T09:02:25.201Z,27.10
2018-07-04T09:05:12.307Z,26.70
2018-07-04T09:07:59.333Z,26.80
2018-07-04T09:10:46.674Z,27.10
2018-07-04T09:13:36.111Z,27.30
2018-07-04T09:16:23.312Z,27.80
2018-07-04T09:19:10.339Z,27.50
2018-07-04T09:21:57.712Z,27.10
2018-07-04T09:24:44.930Z,27.30
2018-07-04T09:27:32.309Z,27.60
2018-07-04T09:30:21.084Z,28.00
2018-07-04T09:33:08.500Z,28.20
2018-07-04T09:35:55.878Z,28.50
2018-07-04T09:38:43.557Z,28.70
2018-07-04T09:41:33.887Z,28.40
2018-07-04T09:44:21.549Z,28.30
2018-07-04T09:47:08.865Z,28.50
2018-07-04T09:50:02.871Z,28.90
2018-07-04T09:52:50.007Z,29.30
2018-07-04T09:55:37.214Z,29.20
2018-07-04T09:58:24.459Z,29.30
2018-07-04T10:01:16.998Z,29.30
2018-07-04T10:04:04.427Z,29.50
2018-07-04T10:12:13.902Z,30.30
2018-07-04T10:15:01.064Z,30.20
2018-07-04T10:17:48.418Z,30.10
2018-07-04T10:20:35.466Z,30.00
2018-07-04T10:23:23.008Z,30.20
2018-07-04T10:26:10.321Z,30.40
2018-07-04T10:28:57.562Z,30.60
2018-07-04T10:31:44.963Z,30.50
2018-07-04T10:34:33.131Z,30.00
2018-07-04T10:37:21.276Z,30.10
2018-07-04T10:40:08.419Z,30.30
2018-07-04T10:42:55.649Z,30.50
2018-07-04T10:45:42.774Z,30.70
2018-07-04T10:48:31.057Z,30.30
2018-07-04T10:51:18.110Z,30.30
2018-07-04T10:54:05.178Z,30.60
2018-07-04T10:56:52.370Z,30.70
2018-07-04T10:59:39.777Z,30.80
2018-07-04T11:02:26.976Z,30.80
2018-07-04T11:05:14.604Z,31.10
2018-07-04T11:08:01.874Z,30.40
2018-07-04T11:10:49.242Z,31.00
2018-07-04T11:13:36.413Z,31.20
2018-07-04T11:16:23.504Z,31.00
2018-07-04T11:19:10.637Z,31.00
2018-07-04T11:21:58.369Z,31.20
2018-07-04T11:24:45.512Z,31.40
2018-07-04T11:30:13.830Z,31.20
2018-07-04T11:33:01.016Z,31.40
2018-07-04T11:35:48.252Z,31.60
2018-07-04T11:41:16.593Z,31.90
2018-07-04T11:44:03.817Z,32.10
2018-07-04T11:46:32.378Z,32.10
2018-07-04T11:49:01.894Z,32.20
2018-07-04T11:51:30.503Z,32.40
2018-07-04T11:53:59.095Z,32.60
2018-07-04T11:56:27.713Z,32.00
2018-07-04T11:58:56.251Z,31.60
2018-07-04T12:01:24.979Z,30.80
2018-07-04T12:04:12.799Z,30.30
2018-07-04T12:07:00.314Z,30.40
2018-07-04T12:09:30.192Z,30.40
2018-07-04T12:11:58.971Z,30.40
2018-07-04T12:14:27.517Z,30.10
2018-07-04T12:16:56.292Z,30.10
2018-07-04T12:19:25.469Z,30.00
2018-07-04T12:21:54.426Z,29.80
2018-07-04T12:24:23.007Z,29.40
2018-07-04T12:26:51.657Z,28.80
2018-07-04T12:29:20.187Z,28.60
2018-07-04T12:31:48.791Z,28.50
2018-07-04T12:34:17.373Z,28.30
2018-07-04T12:36:45.974Z,28.50
2018-07-04T12:39:14.544Z,28.60
2018-07-04T12:41:43.910Z,28.40
2018-07-04T12:44:12.493Z,28.50
2018-07-04T12:46:41.084Z,28.80
2018-07-04T12:49:10.690Z,28.80
2018-07-04T12:51:39.273Z,28.10
2018-07-04T12:54:13.071Z,28.00
2018-07-04T12:57:00.214Z,28.00
2018-07-04T12:59:47.365Z,28.20
2018-07-04T13:02:34.647Z,28.60
2018-07-04T13:05:21.952Z,28.70
2018-07-04T13:08:09.060Z,28.50
2018-07-04T13:10:56.357Z,28.40
2018-07-04T13:13:43.820Z,27.70
2018-07-04T13:16:30.897Z,27.50
2018-07-04T13:19:18.112Z,27.30
2018-07-04T13:22:05.181Z,27.30
2018-07-04T13:24:52.433Z,27.30
2018-07-04T13:27:39.736Z,27.10
2018-07-04T13:30:31.145Z,27.20
2018-07-04T13:33:19.358Z,27.00
2018-07-04T13:36:08.104Z,27.00
2018-07-04T13:38:56.627Z,26.90
2018-07-04T13:41:45.997Z,27.20
2018-07-04T13:44:32.949Z,27.30
2018-07-04T13:47:22.625Z,27.80
2018-07-04T13:50:11.314Z,27.90
2018-07-04T13:52:59.089Z,28.10
2018-07-04T13:55:46.310Z,28.10
2018-07-04T13:58:34.699Z,27.90
2018-07-04T14:01:27.686Z,27.70
2018-07-04T14:04:16.578Z,27.80
2018-07-04T14:07:05.012Z,27.80
2018-07-04T14:09:54.645Z,27.60
2018-07-04T14:12:42.897Z,27.10
2018-07-04T14:15:30.142Z,26.90
2018-07-04T14:18:17.869Z,26.70
2018-07-04T14:21:07.096Z,26.50
2018-07-04T14:23:57.151Z,26.50
2018-07-04T14:26:46.286Z,26.50
2018-07-04T14:29:38.165Z,26.70
2018-07-04T14:32:26.381Z,26.70
2018-07-04T14:35:15.805Z,26.80
2018-07-04T14:38:04.292Z,26.80
2018-07-04T14:40:52.902Z,26.60
2018-07-04T14:43:42.329Z,26.40
2018-07-04T14:46:33.925Z,26.30
2018-07-04T14:49:21.146Z,26.40
2018-07-04T14:52:08.672Z,26.50
2018-07-04T14:54:56.493Z,26.40
2018-07-04T14:57:45.320Z,26.20
2018-07-04T15:00:34.684Z,26.00
2018-07-04T15:03:27.347Z,25.90
2018-07-04T15:06:16.339Z,25.90
2018-07-04T15:09:04.095Z,25.80
2018-07-04T15:11:52.410Z,25.50
2018-07-04T15:14:41.330Z,25.40
2018-07-04T15:17:28.509Z,25.40
2018-07-04T15:20:15.741Z,25.40
2018-07-04T15:23:02.803Z,25.30
2018-07-04T15:25:50.823Z,25.30
2018-07-04T15:28:37.870Z,25.10
2018-07-04T15:31:25.189Z,25.10
2018-07-04T15:34:12.316Z,25.10
2018-07-04T15:36:59.556Z,25.10
2018-07-04T15:39:46.779Z,25.10
2018-07-04T15:42:34.177Z,25.00
2018-07-04T15:45:21.289Z,24.80
2018-07-04T15:48:08.646Z,24.80
2018-07-04T15:50:55.879Z,24.90
2018-07-04T15:53:43.204Z,24.80
2018-07-04T15:56:30.221Z,24.70
2018-07-04T15:59:17.332Z,24.70
2018-07-04T16:02:04.565Z,24.60
2018-07-04T16:04:51.746Z,24.60
2018-07-04T16:07:39.031Z,24.50
2018-07-04T16:10:26.371Z,24.60
2018-07-04T16:13:14.465Z,24.50
2018-07-04T16:16:01.687Z,24.50
2018-07-04T16:18:49.151Z,24.40
2018-07-04T16:21:36.522Z,24.30
2018-07-04T16:24:23.656Z,24.30
2018-07-04T16:27:10.856Z,24.20
2018-07-04T16:29:58.209Z,24.20
2018-07-04T16:32:45.555Z,24.20
2018-07-04T16:35:32.832Z,24.10
2018-07-04T16:38:20.244Z,24.10
2018-07-04T16:41:07.555Z,24.00
2018-07-04T16:43:54.956Z,24.00
2018-07-04T16:46:42.302Z,24.00
2018-07-04T16:49:29.591Z,23.90
2018-07-04T16:52:16.724Z,23.90
2018-07-04T16:55:03.790Z,23.80
2018-07-04T16:57:51.165Z,23.70
2018-07-04T17:00:38.405Z,23.70
2018-07-04T17:03:25.550Z,23.60
2018-07-04T17:06:13.360Z,23.50
2018-07-04T17:09:00.619Z,23.50
2018-07-04T17:11:47.983Z,23.40
2018-07-04T17:14:35.137Z,23.40
2018-07-04T17:17:22.809Z,23.30
2018-07-04T17:20:09.837Z,23.20
2018-07-04T17:22:57.157Z,23.10
2018-07-04T17:25:44.712Z,23.00
2018-07-04T17:28:31.884Z,23.10
2018-07-04T17:31:19.121Z,23.00
2018-07-04T17:34:06.699Z,22.90
2018-07-04T17:36:53.852Z,22.70
2018-07-04T17:39:41.150Z,22.70
2018-07-04T17:42:28.292Z,22.70
2018-07-04T17:45:15.756Z,22.70
2018-07-04T17:48:02.897Z,22.70
2018-07-04T17:50:50.132Z,22.60
2018-07-04T17:53:37.313Z,22.50
2018-07-04T17:56:24.433Z,22.40
2018-07-04T17:59:11.450Z,22.30
2018-07-04T18:01:58.701Z,22.10
2018-07-04T18:04:45.983Z,22.10
2018-07-04T18:07:33.082Z,21.90
2018-07-04T18:10:20.203Z,21.90
2018-07-04T18:13:07.451Z,21.90
2018-07-04T18:15:54.495Z,21.80
2018-07-04T18:18:41.641Z,21.70
2018-07-04T18:21:28.798Z,21.60
2018-07-04T18:24:15.892Z,21.40
2018-07-04T18:27:03.109Z,21.40
2018-07-04T18:29:50.355Z,21.40
2018-07-04T18:32:37.560Z,21.30
2018-07-04T18:35:24.832Z,21.30
2018-07-04T18:38:12.768Z,21.20
2018-07-04T18:41:00.062Z,21.20
2018-07-04T18:43:47.416Z,21.00
2018-07-04T18:46:34.629Z,21.00
2018-07-04T18:49:21.719Z,21.00
2018-07-04T18:52:08.865Z,21.00
2018-07-04T18:54:55.937Z,20.90
2018-07-04T18:57:43.165Z,20.70
2018-07-04T19:00:30.373Z,20.60
2018-07-04T19:03:17.584Z,20.50
2018-07-04T19:06:05.365Z,20.30
2018-07-04T19:11:34.573Z,20.30
2018-07-04T19:14:30.295Z,20.20
2018-07-04T19:17:20.269Z,20.10
2018-07-04T19:20:08.080Z,20.10
2018-07-04T19:22:56.621Z,20.00
2018-07-04T19:25:45.248Z,19.90
2018-07-04T19:28:36.222Z,19.90
2018-07-04T19:31:24.325Z,19.90
2018-07-04T19:34:12.525Z,19.80
2018-07-04T19:37:00.357Z,19.70
2018-07-04T19:39:47.705Z,19.70
2018-07-04T19:42:35.996Z,19.70
2018-07-04T19:45:23.300Z,19.60
2018-07-04T19:48:10.480Z,19.50
2018-07-04T19:50:57.563Z,19.40
2018-07-04T19:53:47.097Z,19.40
2018-07-04T19:56:34.431Z,19.30
2018-07-04T19:59:23.520Z,19.20
2018-07-04T20:02:10.814Z,19.10
2018-07-04T20:04:58.169Z,19.00
2018-07-04T20:07:46.845Z,19.00
2018-07-04T20:10:34.112Z,19.00
2018-07-04T20:13:21.205Z,19.00
2018-07-04T20:16:09.186Z,18.90
2018-07-04T20:18:56.353Z,18.90
2018-07-04T20:21:47.002Z,18.90
2018-07-04T20:24:33.948Z,18.80
2018-07-04T20:27:21.085Z,18.70
2018-07-04T20:30:08.205Z,18.70
2018-07-04T20:32:56.420Z,18.60
2018-07-04T20:35:43.411Z,18.60
2018-07-04T20:38:31.549Z,18.60
2018-07-04T20:41:18.791Z,18.50
2018-07-04T20:44:06.051Z,18.50
2018-07-04T20:46:53.148Z,18.50
2018-07-04T20:49:40.190Z,18.50
2018-07-04T20:52:27.230Z,18.50
2018-07-04T20:55:16.103Z,18.50
2018-07-04T20:58:04.208Z,18.50
2018-07-04T21:00:51.145Z,18.40
2018-07-04T21:03:38.346Z,18.40
2018-07-04T21:06:27.818Z,18.40
2018-07-04T21:09:15.026Z,18.30
2018-07-04T21:12:02.143Z,18.20
2018-07-04T21:14:50.443Z,18.20
2018-07-04T21:17:39.546Z,18.20
2018-07-04T21:20:26.615Z,18.10
2018-07-04T21:25:55.717Z,18.10
2018-07-04T21:28:44.350Z,18.00
2018-07-04T21:34:12.602Z,17.90
2018-07-04T21:36:59.827Z,17.90
2018-07-04T21:39:47.006Z,17.90
2018-07-04T21:42:34.225Z,17.80
2018-07-04T21:45:21.563Z,17.80
2018-07-04T21:48:08.696Z,17.80
2018-07-04T21:50:55.869Z,17.70
2018-07-04T21:53:42.925Z,17.70
2018-07-04T21:59:11.473Z,17.60
2018-07-04T22:01:58.582Z,17.70
2018-07-04T22:04:45.964Z,17.60
2018-07-04T22:07:33.039Z,17.70
2018-07-04T22:10:20.314Z,17.60
2018-07-04T22:13:07.652Z,17.60
2018-07-04T22:15:54.777Z,17.60
2018-07-04T22:18:42.837Z,17.50
2018-07-04T22:21:29.869Z,17.50
2018-07-04T22:24:17.297Z,17.40
2018-07-04T22:27:04.553Z,17.40
2018-07-04T22:29:51.636Z,17.30
2018-07-04T22:32:38.929Z,17.30
2018-07-04T22:35:26.256Z,17.30
2018-07-04T22:38:13.635Z,17.30
2018-07-04T22:41:00.872Z,17.20
2018-07-04T22:43:47.948Z,17.20
2018-07-04T22:46:35.262Z,17.20
2018-07-04T22:49:22.449Z,17.20
2018-07-04T22:52:09.763Z,17.10
2018-07-04T22:54:57.065Z,17.10
2018-07-04T22:57:46.441Z,17.10
2018-07-04T23:00:33.715Z,17.00
2018-07-04T23:03:21.108Z,17.00
2018-07-04T23:06:08.287Z,17.00
2018-07-04T23:08:55.661Z,16.90
2018-07-04T23:11:42.911Z,16.90
2018-07-04T23:14:30.088Z,16.80
2018-07-04T23:17:17.228Z,16.80
2018-07-04T23:20:04.549Z,16.80
2018-07-04T23:22:52.260Z,16.80
2018-07-04T23:25:39.421Z,16.80
2018-07-04T23:28:26.644Z,16.70
2018-07-04T23:31:13.902Z,16.70
2018-07-04T23:34:01.265Z,16.60
2018-07-04T23:36:48.493Z,16.60
2018-07-04T23:42:16.572Z,16.60
2018-07-04T23:45:03.812Z,16.50
2018-07-04T23:47:51.195Z,16.50
2018-07-04T23:50:38.374Z,16.50
2018-07-04T23:53:25.442Z,16.50
2018-07-04T23:56:12.778Z,16.50
2018-07-04T23:59:00.503Z,16.40
